Time;durP1;ratioP1;P1;durP2;ratioP2;P2;SDS_P1;SDS_P2;PMS_P1;PMS_P2;Temp;Humidity;BMP_temperature;BMP_pressure;BME280_temperature;BME280_humidity;BME280_pressure;Samples;Min_cycle;Max_cycle;Signal;HPM_P1;HPM_P2
2022/08/17 00:00:41;;;;;;;;;;;18.00;99.90;;;;;;5034697;28;19920;-72
2022/08/17 00:03:13;;;;;;;;;;;17.90;99.90;;;;;;5034181;28;19924;-71
2022/08/17 00:05:42;;;;;;;;;;;17.90;99.90;;;;;;5034467;28;19921;-72
2022/08/17 00:08:09;;;;;;;;;;;17.90;99.90;;;;;;5034229;28;19913;-71
2022/08/17 00:10:36;;;;;;;;;;;17.90;99.90;;;;;;5033172;28;19921;-72
2022/08/17 00:13:09;;;;;;;;;;;17.90;99.90;;;;;;5034720;28;19936;-71
2022/08/17 00:15:35;;;;;;;;;;;17.90;99.90;;;;;;5033672;28;20278;-71
2022/08/17 00:18:01;;;;;;;;;;;17.90;99.90;;;;;;5032797;28;19913;-71
2022/08/17 00:20:27;;;;;;;;;;;17.90;99.90;;;;;;5033611;28;19924;-72
2022/08/17 00:23:07;;;;;;;;;;;17.80;99.90;;;;;;5033895;28;19913;-71
2022/08/17 00:25:33;;;;;;;;;;;17.80;99.90;;;;;;5033500;28;20292;-71
2022/08/17 00:27:59;;;;;;;;;;;17.70;99.90;;;;;;5034111;28;19920;-71
2022/08/17 00:30:25;;;;;;;;;;;17.70;99.90;;;;;;5033638;28;19921;-71
2022/08/17 00:32:51;;;;;;;;;;;17.60;99.90;;;;;;5033697;28;20294;-71
2022/08/17 00:35:18;;;;;;;;;;;17.60;99.90;;;;;;5032924;28;20013;-72
2022/08/17 00:37:44;;;;;;;;;;;17.50;99.90;;;;;;5033420;28;19916;-72
2022/08/17 00:40:12;;;;;;;;;;;17.60;99.90;;;;;;5033275;28;20282;-71
2022/08/17 00:42:38;;;;;;;;;;;17.50;99.90;;;;;;5033384;28;20343;-71
2022/08/17 00:45:05;;;;;;;;;;;17.60;99.90;;;;;;5033594;28;19917;-72
2022/08/17 00:47:31;;;;;;;;;;;17.50;99.90;;;;;;5032932;28;19913;-71
2022/08/17 00:49:57;;;;;;;;;;;17.50;99.90;;;;;;5033616;28;19932;-71
2022/08/17 00:52:27;;;;;;;;;;;17.50;99.90;;;;;;5032589;28;19924;-71
2022/08/17 00:54:53;;;;;;;;;;;17.40;99.90;;;;;;5032729;28;19913;-71
2022/08/17 00:57:22;;;;;;;;;;;17.40;99.90;;;;;;5032581;28;19913;-71
2022/08/17 00:59:56;;;;;;;;;;;17.40;99.90;;;;;;5033094;28;20373;-71
2022/08/17 01:02:22;;;;;;;;;;;17.40;99.90;;;;;;5032592;28;20251;-71
2022/08/17 01:04:49;;;;;;;;;;;17.40;99.90;;;;;;5032957;28;19914;-71
2022/08/17 01:07:16;;;;;;;;;;;17.30;99.90;;;;;;5033092;28;19916;-71
2022/08/17 01:09:42;;;;;;;;;;;17.20;99.90;;;;;;5031452;28;19928;-71
2022/08/17 01:12:09;;;;;;;;;;;17.20;99.90;;;;;;5033194;28;19927;-71
2022/08/17 01:14:35;;;;;;;;;;;17.30;99.90;;;;;;5032182;28;19924;-71
2022/08/17 01:17:02;;;;;;;;;;;17.30;99.90;;;;;;5033066;28;19913;-71
2022/08/17 01:19:30;;;;;;;;;;;17.30;99.90;;;;;;5032262;28;19920;-71
2022/08/17 01:22:02;;;;;;;;;;;17.20;99.90;;;;;;5032712;28;20366;-71
2022/08/17 01:24:28;;;;;;;;;;;17.20;99.90;;;;;;5032254;28;19920;-71
2022/08/17 01:26:54;;;;;;;;;;;17.20;99.90;;;;;;5032615;28;19919;-70
2022/08/17 01:29:21;;;;;;;;;;;17.20;99.90;;;;;;5032050;28;20095;-71
2022/08/17 01:31:49;;;;;;;;;;;17.20;99.90;;;;;;5033128;28;19917;-71
2022/08/17 01:34:16;;;;;;;;;;;17.20;99.90;;;;;;5032875;28;19920;-71
2022/08/17 01:36:44;;;;;;;;;;;17.20;99.90;;;;;;5032806;28;19980;-71
2022/08/17 01:39:16;;;;;;;;;;;17.10;99.90;;;;;;5032815;28;19909;-71
2022/08/17 01:41:44;;;;;;;;;;;17.10;99.90;;;;;;5032541;28;19913;-71
2022/08/17 01:44:10;;;;;;;;;;;17.00;99.90;;;;;;5032667;28;19913;-71
2022/08/17 01:46:36;;;;;;;;;;;16.80;99.90;;;;;;5031866;28;20377;-71
2022/08/17 01:49:06;;;;;;;;;;;16.70;99.90;;;;;;5032621;28;19917;-71
2022/08/17 01:51:32;;;;;;;;;;;16.60;99.90;;;;;;5029846;28;19913;-71
2022/08/17 01:54:09;;;;;;;;;;;16.50;99.90;;;;;;5032679;28;20278;-71
2022/08/17 01:56:39;;;;;;;;;;;16.60;99.90;;;;;;5031967;28;19913;-71
2022/08/17 01:59:05;;;;;;;;;;;16.70;99.90;;;;;;5032344;28;20350;-71
2022/08/17 02:01:32;;;;;;;;;;;16.70;99.90;;;;;;5032025;28;20343;-71
2022/08/17 02:03:58;;;;;;;;;;;16.70;99.90;;;;;;5032720;28;19920;-72
2022/08/17 02:06:24;;;;;;;;;;;16.70;99.90;;;;;;5030998;28;20366;-72
2022/08/17 02:08:50;;;;;;;;;;;16.70;99.90;;;;;;5032327;28;20390;-71
2022/08/17 02:11:18;;;;;;;;;;;16.60;99.90;;;;;;5032196;28;19944;-71
2022/08/17 02:13:45;;;;;;;;;;;16.40;99.90;;;;;;5032033;28;20302;-71
2022/08/17 02:16:11;;;;;;;;;;;16.50;99.90;;;;;;5032184;28;19914;-71
2022/08/17 02:18:37;;;;;;;;;;;16.50;99.90;;;;;;5031927;28;19913;-71
2022/08/17 02:21:04;;;;;;;;;;;16.50;99.90;;;;;;5032087;28;19919;-71
2022/08/17 02:23:31;;;;;;;;;;;16.60;99.90;;;;;;5031868;28;19924;-71
2022/08/17 02:25:58;;;;;;;;;;;16.50;99.90;;;;;;5032115;28;20271;-71
2022/08/17 02:28:24;;;;;;;;;;;16.50;99.90;;;;;;5031769;28;20270;-71
2022/08/17 02:30:50;;;;;;;;;;;16.50;99.90;;;;;;5031843;28;19925;-71
2022/08/17 02:33:17;;;;;;;;;;;16.50;99.90;;;;;;5030924;28;20266;-71
2022/08/17 02:35:43;;;;;;;;;;;16.60;99.90;;;;;;5031404;28;19917;-71
2022/08/17 02:38:09;;;;;;;;;;;16.60;99.90;;;;;;5032309;28;19963;-71
2022/08/17 02:40:36;;;;;;;;;;;16.60;99.90;;;;;;5031259;28;20011;-71
2022/08/17 02:43:02;;;;;;;;;;;16.50;99.90;;;;;;5031929;28;20259;-72
2022/08/17 02:45:28;;;;;;;;;;;16.50;99.90;;;;;;5031240;28;19913;-72
2022/08/17 02:47:54;;;;;;;;;;;16.60;99.90;;;;;;5032878;28;19913;-71
2022/08/17 02:50:22;;;;;;;;;;;16.50;99.90;;;;;;5032685;28;20316;-71
2022/08/17 02:52:49;;;;;;;;;;;16.60;99.90;;;;;;5032700;28;19917;-71
2022/08/17 02:55:19;;;;;;;;;;;16.50;99.90;;;;;;5032146;28;19920;-71
2022/08/17 02:57:46;;;;;;;;;;;16.50;99.90;;;;;;5031240;28;19921;-71
2022/08/17 03:00:23;;;;;;;;;;;16.60;99.90;;;;;;5031394;28;19916;-71
2022/08/17 03:02:50;;;;;;;;;;;16.60;99.90;;;;;;5031794;28;19913;-71
2022/08/17 03:05:18;;;;;;;;;;;16.60;99.90;;;;;;5031981;28;19916;-71
2022/08/17 03:07:44;;;;;;;;;;;16.60;99.90;;;;;;5031470;28;19940;-71
2022/08/17 03:10:10;;;;;;;;;;;16.50;99.90;;;;;;5031516;28;19921;-71
2022/08/17 03:12:38;;;;;;;;;;;16.50;99.90;;;;;;5030954;28;19925;-71
2022/08/17 03:15:07;;;;;;;;;;;16.50;99.90;;;;;;5031697;28;19917;-71
2022/08/17 03:17:33;;;;;;;;;;;16.50;99.90;;;;;;5029737;28;19920;-71
2022/08/17 03:19:59;;;;;;;;;;;16.50;99.90;;;;;;5035319;28;19955;-71
2022/08/17 03:22:28;;;;;;;;;;;16.60;99.90;;;;;;5034510;28;19936;-72
2022/08/17 03:24:54;;;;;;;;;;;16.70;99.90;;;;;;5034908;28;19913;-71
2022/08/17 03:27:20;;;;;;;;;;;16.60;99.90;;;;;;5034836;28;19913;-71
2022/08/17 03:29:46;;;;;;;;;;;16.50;99.90;;;;;;5034278;28;19921;-71
2022/08/17 03:32:14;;;;;;;;;;;16.60;99.90;;;;;;5035008;28;19920;-71
2022/08/17 03:34:40;;;;;;;;;;;16.50;99.90;;;;;;5034311;28;19913;-71
2022/08/17 03:37:07;;;;;;;;;;;16.50;99.90;;;;;;5033900;28;19913;-71
2022/08/17 03:39:33;;;;;;;;;;;16.50;99.90;;;;;;5034240;28;19920;-71
2022/08/17 03:42:11;;;;;;;;;;;16.40;99.90;;;;;;5035769;28;20346;-71
2022/08/17 03:44:37;;;;;;;;;;;16.30;99.90;;;;;;5034168;28;20382;-71
2022/08/17 03:58:01;;;;;;;;;;;16.40;99.90;;;;;;5034710;28;20385;-71
2022/08/17 04:00:27;;;;;;;;;;;16.50;99.90;;;;;;5034011;28;20000;-72
2022/08/17 04:02:53;;;;;;;;;;;16.50;99.90;;;;;;5034613;28;20405;-71
2022/08/17 04:05:19;;;;;;;;;;;16.50;99.90;;;;;;5034416;28;19920;-71
2022/08/17 04:07:46;;;;;;;;;;;16.70;99.90;;;;;;5033958;28;19936;-71
2022/08/17 04:10:12;;;;;;;;;;;16.80;99.90;;;;;;5034119;28;19917;-71
2022/08/17 04:12:47;;;;;;;;;;;16.80;99.90;;;;;;5033692;28;19944;-71
2022/08/17 04:15:13;;;;;;;;;;;16.80;99.90;;;;;;5034414;28;19918;-71
2022/08/17 04:17:39;;;;;;;;;;;16.80;99.90;;;;;;5033692;28;20271;-72
2022/08/17 04:20:06;;;;;;;;;;;16.90;99.90;;;;;;5034326;28;19913;-72
2022/08/17 04:22:32;;;;;;;;;;;17.00;99.90;;;;;;5033952;28;19916;-71
2022/08/17 04:24:58;;;;;;;;;;;17.30;99.90;;;;;;5034096;28;19916;-71
2022/08/17 04:27:24;;;;;;;;;;;17.60;99.90;;;;;;5033598;28;19916;-71
2022/08/17 04:29:50;;;;;;;;;;;17.90;99.90;;;;;;5032547;28;19921;-72
2022/08/17 04:32:16;;;;;;;;;;;18.00;99.90;;;;;;5034078;28;20366;-71
2022/08/17 04:34:42;;;;;;;;;;;18.40;99.90;;;;;;5033722;28;19956;-72
2022/08/17 04:37:08;;;;;;;;;;;18.50;99.90;;;;;;5033967;28;19913;-72
2022/08/17 04:39:34;;;;;;;;;;;18.50;99.90;;;;;;5033445;28;19919;-71
2022/08/17 04:42:06;;;;;;;;;;;18.60;99.90;;;;;;5033810;28;19916;-71
2022/08/17 04:44:32;;;;;;;;;;;18.60;99.90;;;;;;5033393;28;19917;-72
2022/08/17 04:46:58;;;;;;;;;;;18.50;99.90;;;;;;5033976;28;20350;-72
2022/08/17 04:49:24;;;;;;;;;;;18.60;99.90;;;;;;5033808;28;20008;-71
2022/08/17 04:51:50;;;;;;;;;;;18.70;99.90;;;;;;5031461;28;20313;-72
2022/08/17 04:54:18;;;;;;;;;;;18.70;99.90;;;;;;5033152;28;19913;-71
2022/08/17 04:56:44;;;;;;;;;;;18.70;99.90;;;;;;5033149;28;19912;-72
2022/08/17 04:59:14;;;;;;;;;;;18.70;99.90;;;;;;5033403;28;19980;-71
2022/08/17 05:01:40;;;;;;;;;;;18.80;99.90;;;;;;5033107;28;19932;-71
2022/08/17 05:04:08;;;;;;;;;;;18.90;99.90;;;;;;5033334;28;19913;-72
2022/08/17 05:06:34;;;;;;;;;;;19.20;99.90;;;;;;5032942;28;19909;-72
2022/08/17 05:09:01;;;;;;;;;;;19.50;99.90;;;;;;5033694;28;20219;-72
2022/08/17 05:11:28;;;;;;;;;;;20.00;99.90;;;;;;5032947;28;19936;-72
2022/08/17 05:13:55;;;;;;;;;;;20.60;99.90;;;;;;5032854;28;19924;-71
2022/08/17 05:16:22;;;;;;;;;;;20.90;99.90;;;;;;5032976;28;19920;-72
2022/08/17 05:18:48;;;;;;;;;;;20.60;99.90;;;;;;5032396;28;20285;-72
2022/08/17 05:21:14;;;;;;;;;;;20.00;99.90;;;;;;5033054;28;19915;-72
2022/08/17 05:23:41;;;;;;;;;;;20.00;99.90;;;;;;5032304;28;19909;-72
2022/08/17 05:26:07;;;;;;;;;;;20.00;99.90;;;;;;5033113;28;19913;-72
2022/08/17 05:28:33;;;;;;;;;;;20.00;99.90;;;;;;5032402;28;19946;-72
2022/08/17 05:31:01;;;;;;;;;;;19.80;99.90;;;;;;5033139;28;19924;-72
2022/08/17 05:33:29;;;;;;;;;;;19.80;99.90;;;;;;5033152;28;19924;-72
2022/08/17 05:35:56;;;;;;;;;;;20.10;99.90;;;;;;5032591;28;19920;-72
2022/08/17 05:38:23;;;;;;;;;;;20.30;99.90;;;;;;5032832;28;20401;-72
2022/08/17 05:40:49;;;;;;;;;;;20.30;99.90;;;;;;5032199;28;20298;-72
2022/08/17 05:43:15;;;;;;;;;;;20.20;99.90;;;;;;5032903;28;19918;-72
2022/08/17 05:45:50;;;;;;;;;;;20.10;99.90;;;;;;5032188;28;20413;-72
2022/08/17 05:48:16;;;;;;;;;;;20.10;99.90;;;;;;5032531;28;20282;-72
2022/08/17 05:50:42;;;;;;;;;;;20.20;99.90;;;;;;5032118;28;19920;-72
2022/08/17 05:53:27;;;;;;;;;;;20.40;99.90;;;;;;5032799;28;20366;-72
2022/08/17 05:56:09;;;;;;;;;;;20.70;99.90;;;;;;5032092;28;19917;-72
2022/08/17 05:58:47;;;;;;;;;;;21.10;99.90;;;;;;5032252;28;19913;-72
2022/08/17 06:01:22;;;;;;;;;;;21.90;98.30;;;;;;5032309;28;19914;-72
2022/08/17 06:03:54;;;;;;;;;;;21.60;97.50;;;;;;5031708;28;19913;-72
2022/08/17 06:06:25;;;;;;;;;;;21.50;97.70;;;;;;5032687;28;19921;-72
2022/08/17 06:09:00;;;;;;;;;;;21.40;98.20;;;;;;5031535;28;19913;-72
2022/08/17 06:11:29;;;;;;;;;;;21.30;98.00;;;;;;5032027;28;19921;-72
2022/08/17 06:14:14;;;;;;;;;;;21.00;98.50;;;;;;5031708;28;20367;-72
2022/08/17 06:16:43;;;;;;;;;;;20.90;98.80;;;;;;5031806;28;20393;-72
2022/08/17 06:19:09;;;;;;;;;;;20.80;98.40;;;;;;5032238;28;19913;-72
2022/08/17 06:21:38;;;;;;;;;;;20.80;98.40;;;;;;5031620;28;19960;-72
2022/08/17 06:24:13;;;;;;;;;;;20.80;98.60;;;;;;5031791;28;19921;-71
2022/08/17 06:26:40;;;;;;;;;;;21.00;97.90;;;;;;5031663;28;20362;-72
2022/08/17 06:29:26;;;;;;;;;;;21.20;97.10;;;;;;5032495;28;19913;-72
2022/08/17 06:31:52;;;;;;;;;;;21.60;95.20;;;;;;5023483;28;19929;-72
2022/08/17 06:34:19;;;;;;;;;;;22.50;92.90;;;;;;5032290;28;20301;-72
2022/08/17 06:36:59;;;;;;;;;;;24.00;88.40;;;;;;5031531;28;19913;-72
2022/08/17 06:39:25;;;;;;;;;;;23.40;83.00;;;;;;5032143;28;19921;-71
2022/08/17 06:42:11;;;;;;;;;;;22.50;87.00;;;;;;5031568;28;19917;-71
2022/08/17 06:45:01;;;;;;;;;;;22.00;90.00;;;;;;5029779;28;19921;-72
2022/08/17 06:47:43;;;;;;;;;;;21.70;91.30;;;;;;5032100;28;19924;-71
2022/08/17 06:50:19;;;;;;;;;;;21.60;91.90;;;;;;5032267;28;20396;-71
2022/08/17 06:53:03;;;;;;;;;;;21.70;92.20;;;;;;5031618;28;20378;-72
2022/08/17 06:55:34;;;;;;;;;;;21.70;92.80;;;;;;5035434;28;19913;-71
2022/08/17 06:58:02;;;;;;;;;;;21.60;92.80;;;;;;5035006;28;19913;-71
2022/08/17 07:00:32;;;;;;;;;;;21.50;93.00;;;;;;5035579;28;20004;-72
2022/08/17 07:03:07;;;;;;;;;;;21.40;93.30;;;;;;5034747;28;19924;-71
2022/08/17 07:05:33;;;;;;;;;;;21.30;93.90;;;;;;5017858;28;19913;-71
2022/08/17 07:08:19;;;;;;;;;;;21.30;94.60;;;;;;5033269;28;20016;-71
2022/08/17 07:10:51;;;;;;;;;;;21.20;94.70;;;;;;5034575;28;19995;-72
2022/08/17 07:13:29;;;;;;;;;;;21.10;95.30;;;;;;5033510;28;19936;-71
2022/08/17 07:15:59;;;;;;;;;;;21.10;96.30;;;;;;5034690;28;19914;-71
2022/08/17 07:18:27;;;;;;;;;;;21.10;96.60;;;;;;5035371;28;19939;-70
2022/08/17 07:20:55;;;;;;;;;;;21.10;96.40;;;;;;5034968;28;20299;-70
2022/08/17 07:23:25;;;;;;;;;;;21.10;96.30;;;;;;5043701;28;19913;-70
2022/08/17 07:25:51;;;;;;;;;;;21.10;95.60;;;;;;5044286;28;19920;-71
2022/08/17 07:28:21;;;;;;;;;;;21.10;96.00;;;;;;5037748;28;19924;-71
2022/08/17 07:30:50;;;;;;;;;;;21.10;95.60;;;;;;5034743;28;19921;-71
2022/08/17 07:33:19;;;;;;;;;;;21.10;96.00;;;;;;5035149;28;19917;-71
2022/08/17 07:35:47;;;;;;;;;;;21.10;95.70;;;;;;5034504;28;20278;-71
2022/08/17 07:38:29;;;;;;;;;;;21.00;98.20;;;;;;5033934;28;19920;-70
2022/08/17 07:41:01;;;;;;;;;;;21.10;96.80;;;;;;5033986;28;19913;-70
2022/08/17 07:43:35;;;;;;;;;;;21.00;96.40;;;;;;5034646;28;19925;-71
2022/08/17 07:48:48;;;;;;;;;;;21.10;96.60;;;;;;5034181;28;19920;-70
2022/08/17 07:51:16;;;;;;;;;;;21.20;97.00;;;;;;5034898;28;19913;-71
2022/08/17 07:53:44;;;;;;;;;;;21.20;96.10;;;;;;5033968;28;19917;-71
2022/08/17 07:56:10;;;;;;;;;;;21.20;95.40;;;;;;5034518;28;19920;-71
2022/08/17 07:58:36;;;;;;;;;;;21.20;94.50;;;;;;5034490;28;19913;-71
2022/08/17 08:01:07;;;;;;;;;;;21.20;95.40;;;;;;5034645;28;19913;-72
2022/08/17 08:03:39;;;;;;;;;;;21.20;94.40;;;;;;5034372;28;20310;-72
2022/08/17 08:06:17;;;;;;;;;;;21.30;94.60;;;;;;5033039;28;19920;-71
2022/08/17 08:08:49;;;;;;;;;;;21.50;96.70;;;;;;5034232;28;19913;-72
2022/08/17 08:11:27;;;;;;;;;;;21.90;95.00;;;;;;5034263;28;19921;-71
2022/08/17 08:13:53;;;;;;;;;;;22.10;92.80;;;;;;5033988;28;19918;-71
2022/08/17 08:16:24;;;;;;;;;;;22.10;93.20;;;;;;5034833;28;19913;-71
2022/08/17 08:18:52;;;;;;;;;;;22.00;92.70;;;;;;5032291;28;19932;-71
2022/08/17 08:21:18;;;;;;;;;;;22.00;94.20;;;;;;5034075;28;19920;-71
2022/08/17 08:23:56;;;;;;;;;;;21.90;93.80;;;;;;5033529;28;19925;-71
2022/08/17 08:26:41;;;;;;;;;;;21.80;93.10;;;;;;5034151;28;20274;-71
2022/08/17 08:29:13;;;;;;;;;;;21.70;93.30;;;;;;5034120;28;20126;-71
2022/08/17 08:31:58;;;;;;;;;;;21.60;93.50;;;;;;5033998;28;20369;-71
2022/08/17 08:34:37;;;;;;;;;;;21.50;94.00;;;;;;5034077;28;19925;-71
2022/08/17 08:37:14;;;;;;;;;;;21.50;94.50;;;;;;5033505;28;19924;-71
2022/08/17 08:39:52;;;;;;;;;;;21.50;94.50;;;;;;5034237;28;19913;-72
2022/08/17 08:42:48;;;;;;;;;;;21.60;94.60;;;;;;5033562;28;19913;-70
2022/08/17 08:45:13;;;;;;;;;;;21.70;94.40;;;;;;5024872;28;19924;-71
2022/08/17 08:47:58;;;;;;;;;;;21.70;94.60;;;;;;5033890;28;20321;-71
2022/08/17 08:50:46;;;;;;;;;;;21.80;94.30;;;;;;5033682;28;20315;-71
2022/08/17 08:53:22;;;;;;;;;;;21.80;94.50;;;;;;5033589;28;19917;-71
2022/08/17 08:55:53;;;;;;;;;;;21.90;93.90;;;;;;5033047;28;19921;-71
2022/08/17 08:58:24;;;;;;;;;;;22.00;94.20;;;;;;5033774;28;19939;-71
2022/08/17 09:00:53;;;;;;;;;;;22.00;94.60;;;;;;5032749;28;19924;-71
2022/08/17 09:03:37;;;;;;;;;;;22.00;94.20;;;;;;5032537;28;19909;-71
2022/08/17 09:06:32;;;;;;;;;;;22.00;94.00;;;;;;5033059;28;20345;-71
2022/08/17 09:08:58;;;;;;;;;;;22.20;94.50;;;;;;5023539;28;19913;-71
2022/08/17 09:11:34;;;;;;;;;;;22.50;93.70;;;;;;5033025;28;20321;-71
2022/08/17 09:14:09;;;;;;;;;;;22.60;93.00;;;;;;5032832;28;19917;-71
2022/08/17 09:16:35;;;;;;;;;;;22.70;92.90;;;;;;5032746;28;20255;-72
2022/08/17 09:19:29;;;;;;;;;;;23.00;92.40;;;;;;5032597;28;19917;-72
2022/08/17 09:22:09;;;;;;;;;;;23.20;91.40;;;;;;5028179;28;19913;-72
2022/08/17 09:24:45;;;;;;;;;;;23.40;90.90;;;;;;5033033;28;19913;-71
2022/08/17 09:27:20;;;;;;;;;;;23.20;90.30;;;;;;5033005;28;19920;-71
2022/08/17 09:29:56;;;;;;;;;;;23.20;90.80;;;;;;5032611;28;19928;-73
2022/08/17 09:32:30;;;;;;;;;;;23.40;90.70;;;;;;5032972;28;19917;-71
2022/08/17 09:35:00;;;;;;;;;;;23.60;91.20;;;;;;5032161;28;19932;-73
2022/08/17 09:37:32;;;;;;;;;;;24.00;89.90;;;;;;5032960;28;20346;-72
2022/08/17 09:40:10;;;;;;;;;;;24.00;88.00;;;;;;5031820;28;19936;-72
2022/08/17 09:42:51;;;;;;;;;;;24.10;87.10;;;;;;5033145;28;19920;-72
2022/08/17 09:45:20;;;;;;;;;;;23.90;88.60;;;;;;5032854;28;19944;-73
2022/08/17 09:47:46;;;;;;;;;;;23.90;88.70;;;;;;5032821;28;20266;-72
2022/08/17 09:50:12;;;;;;;;;;;23.80;88.00;;;;;;5032391;28;20255;-72
2022/08/17 09:52:40;;;;;;;;;;;23.90;88.10;;;;;;5047801;28;19936;-70
2022/08/17 09:55:06;;;;;;;;;;;23.90;88.50;;;;;;5031814;28;19913;-70
2022/08/17 09:57:38;;;;;;;;;;;23.90;88.60;;;;;;5032334;28;19913;-70
2022/08/17 10:00:14;;;;;;;;;;;23.80;89.60;;;;;;5031670;28;19913;-71
2022/08/17 10:02:43;;;;;;;;;;;23.90;90.70;;;;;;5032609;28;19913;-71
2022/08/17 10:05:09;;;;;;;;;;;24.00;90.00;;;;;;5032008;28;19913;-71
2022/08/17 10:07:38;;;;;;;;;;;23.80;90.00;;;;;;5032649;28;19996;-71
2022/08/17 10:10:11;;;;;;;;;;;23.60;90.50;;;;;;5031957;28;19913;-71
2022/08/17 10:12:42;;;;;;;;;;;23.50;91.70;;;;;;5032124;28;19925;-70
2022/08/17 10:15:23;;;;;;;;;;;23.60;92.40;;;;;;5032319;28;19921;-71
2022/08/17 10:18:16;;;;;;;;;;;23.60;92.00;;;;;;5030628;28;19920;-72
2022/08/17 10:26:11;;;;;;;;;;;23.40;92.20;;;;;;5029717;28;19920;-71
2022/08/17 10:26:30;;;;;;;;;;;23.20;95.70;;;;;;5032436;28;19917;-71
2022/08/17 10:29:17;;;;;;;;;;;23.00;97.10;;;;;;5034153;28;19910;-72
2022/08/17 10:31:52;;;;;;;;;;;22.80;97.60;;;;;;5036147;28;19921;-71
2022/08/17 10:34:41;;;;;;;;;;;22.60;99.50;;;;;;5036341;28;20110;-71
2022/08/17 10:37:27;;;;;;;;;;;22.70;99.90;;;;;;5028932;28;19920;-71
2022/08/17 10:40:11;;;;;;;;;;;22.80;99.90;;;;;;5035420;28;19913;-72
2022/08/17 10:42:47;;;;;;;;;;;22.90;99.90;;;;;;5035833;28;19925;-71
2022/08/17 10:45:32;;;;;;;;;;;23.00;99.90;;;;;;5035630;28;20380;-71
2022/08/17 10:48:02;;;;;;;;;;;23.20;99.90;;;;;;5035304;28;19924;-71
2022/08/17 10:50:43;;;;;;;;;;;23.20;98.70;;;;;;5036034;28;19917;-71
2022/08/17 10:53:09;;;;;;;;;;;23.20;99.00;;;;;;5035452;28;20274;-71
2022/08/17 10:55:35;;;;;;;;;;;23.10;97.90;;;;;;5035768;28;19929;-71
2022/08/17 10:58:20;;;;;;;;;;;23.20;97.70;;;;;;5035082;28;20303;-71
2022/08/17 11:00:49;;;;;;;;;;;23.20;97.30;;;;;;5036037;28;19913;-71
2022/08/17 11:03:19;;;;;;;;;;;23.20;94.80;;;;;;5035030;28;19924;-71
2022/08/17 11:05:58;;;;;;;;;;;23.40;94.70;;;;;;5035586;28;19913;-70
2022/08/17 11:08:39;;;;;;;;;;;23.40;93.90;;;;;;5035822;28;20386;-71
2022/08/17 11:11:08;;;;;;;;;;;23.50;94.20;;;;;;5034886;28;19921;-71
2022/08/17 11:13:39;;;;;;;;;;;23.80;94.20;;;;;;5035970;28;19934;-71
2022/08/17 11:16:11;;;;;;;;;;;24.20;92.70;;;;;;5035302;28;19913;-71
2022/08/17 11:18:51;;;;;;;;;;;24.70;91.80;;;;;;5035619;28;19913;-71
2022/08/17 11:21:17;;;;;;;;;;;25.20;89.80;;;;;;5035075;28;19913;-71
2022/08/17 11:24:02;;;;;;;;;;;25.50;85.20;;;;;;5035373;28;20255;-71
2022/08/17 11:26:33;;;;;;;;;;;25.80;86.60;;;;;;5035692;28;19917;-71
2022/08/17 11:29:01;;;;;;;;;;;25.50;81.40;;;;;;5034658;28;20389;-72
2022/08/17 11:31:30;;;;;;;;;;;26.00;82.10;;;;;;5035408;28;19922;-72
2022/08/17 11:34:15;;;;;;;;;;;26.50;78.70;;;;;;5034273;28;20354;-72
2022/08/17 11:36:55;;;;;;;;;;;26.70;75.30;;;;;;5035309;28;19913;-72
2022/08/17 11:39:29;;;;;;;;;;;26.90;74.00;;;;;;5034522;28;20255;-72
2022/08/17 11:42:25;;;;;;;;;;;27.30;69.90;;;;;;5033306;28;19920;-72
2022/08/17 11:44:54;;;;;;;;;;;27.20;69.10;;;;;;5026055;28;19940;-72
2022/08/17 11:53:36;;;;;;;;;;;27.80;69.60;;;;;;5033090;28;19940;-72
2022/08/17 11:56:08;;;;;;;;;;;27.20;69.80;;;;;;5038002;28;19913;-72
2022/08/17 11:58:41;;;;;;;;;;;27.30;69.70;;;;;;5051151;28;20275;-71
2022/08/17 12:01:12;;;;;;;;;;;27.50;69.50;;;;;;5045399;28;20269;-72
2022/08/17 12:03:38;;;;;;;;;;;27.20;68.70;;;;;;5034816;28;19920;-72
2022/08/17 12:06:05;;;;;;;;;;;27.10;69.50;;;;;;5033747;28;19920;-72
2022/08/17 12:08:32;;;;;;;;;;;27.30;69.30;;;;;;5033134;28;19913;-72
2022/08/17 12:11:10;;;;;;;;;;;27.30;70.00;;;;;;5033890;28;19924;-73
2022/08/17 12:13:46;;;;;;;;;;;27.50;69.20;;;;;;5034971;28;19940;-72
2022/08/17 12:16:13;;;;;;;;;;;27.70;69.10;;;;;;5033491;28;19913;-71
2022/08/17 12:18:47;;;;;;;;;;;27.40;69.20;;;;;;5034380;28;19914;-71
2022/08/17 12:21:19;;;;;;;;;;;27.30;68.80;;;;;;5033515;28;19913;-72
2022/08/17 12:23:55;;;;;;;;;;;27.20;69.30;;;;;;5034101;28;20373;-71
2022/08/17 12:26:23;;;;;;;;;;;26.90;70.10;;;;;;5033666;28;19913;-71
2022/08/17 12:28:56;;;;;;;;;;;27.00;71.00;;;;;;5033755;28;19920;-71
2022/08/17 12:31:25;;;;;;;;;;;26.70;72.10;;;;;;5033995;28;19921;-71
2022/08/17 12:33:52;;;;;;;;;;;26.60;73.30;;;;;;5034113;28;19920;-72
2022/08/17 12:36:20;;;;;;;;;;;26.50;73.40;;;;;;5033180;28;19925;-72
2022/08/17 12:38:52;;;;;;;;;;;26.40;73.30;;;;;;5033952;28;19925;-72
2022/08/17 12:41:29;;;;;;;;;;;26.30;73.60;;;;;;5031740;28;19917;-72
2022/08/17 12:44:03;;;;;;;;;;;26.30;73.30;;;;;;5033638;28;19917;-72
2022/08/17 12:46:32;;;;;;;;;;;26.20;73.90;;;;;;5033877;28;19913;-71
2022/08/17 12:49:12;;;;;;;;;;;26.00;72.60;;;;;;5033126;28;19924;-77
2022/08/17 12:51:41;;;;;;;;;;;25.80;72.10;;;;;;5031477;28;19921;-72
2022/08/17 12:54:19;;;;;;;;;;;25.80;72.30;;;;;;5032990;28;19914;-72
2022/08/17 12:56:45;;;;;;;;;;;25.80;72.90;;;;;;5032732;28;19913;-72
2022/08/17 12:59:11;;;;;;;;;;;25.90;74.00;;;;;;5033035;28;19920;-72
2022/08/17 13:01:51;;;;;;;;;;;25.90;73.00;;;;;;5033668;28;19913;-72
2022/08/17 13:04:17;;;;;;;;;;;25.80;75.30;;;;;;5032584;28;20012;-72
2022/08/17 13:06:50;;;;;;;;;;;25.90;75.40;;;;;;5033738;28;19913;-71
2022/08/17 13:09:26;;;;;;;;;;;25.70;75.00;;;;;;5032876;28;19913;-71
2022/08/17 13:11:54;;;;;;;;;;;26.00;75.10;;;;;;5033363;28;19921;-71
2022/08/17 13:14:20;;;;;;;;;;;26.40;74.50;;;;;;5032911;28;19928;-71
2022/08/17 13:16:52;;;;;;;;;;;26.30;74.00;;;;;;5033096;28;20263;-72
2022/08/17 13:19:21;;;;;;;;;;;26.60;75.20;;;;;;5032330;28;19917;-71
2022/08/17 13:21:49;;;;;;;;;;;26.80;73.30;;;;;;5033184;28;19936;-71
2022/08/17 13:24:17;;;;;;;;;;;27.10;72.20;;;;;;5032394;28;19913;-71
2022/08/17 13:26:44;;;;;;;;;;;27.70;70.50;;;;;;5033035;28;19913;-71
2022/08/17 13:29:17;;;;;;;;;;;27.40;69.30;;;;;;5032617;28;19920;-71
2022/08/17 13:31:43;;;;;;;;;;;27.80;69.60;;;;;;5033216;28;19917;-72
2022/08/17 13:34:13;;;;;;;;;;;28.30;67.20;;;;;;5032306;28;19996;-72
2022/08/17 13:36:39;;;;;;;;;;;28.40;65.50;;;;;;5032916;28;20286;-72
2022/08/17 13:39:11;;;;;;;;;;;28.40;65.80;;;;;;5032179;28;19916;-72
2022/08/17 13:41:37;;;;;;;;;;;28.60;65.50;;;;;;5033261;28;19920;-72
2022/08/17 13:44:22;;;;;;;;;;;28.90;64.60;;;;;;5032503;28;19914;-73
2022/08/17 13:46:49;;;;;;;;;;;28.50;61.90;;;;;;5032601;28;19913;-72
2022/08/17 13:49:18;;;;;;;;;;;28.00;64.00;;;;;;5032047;28;20027;-72
2022/08/17 13:51:46;;;;;;;;;;;28.10;64.80;;;;;;5031416;28;19924;-72
2022/08/17 13:54:24;;;;;;;;;;;28.00;64.50;;;;;;5032042;28;19924;-71
2022/08/17 13:56:50;;;;;;;;;;;28.20;63.80;;;;;;5032811;28;19917;-72
2022/08/17 13:59:24;;;;;;;;;;;27.80;63.50;;;;;;5032304;28;20401;-72
2022/08/17 14:01:51;;;;;;;;;;;27.90;63.60;;;;;;5032683;28;19913;-72
2022/08/17 14:04:18;;;;;;;;;;;27.90;62.50;;;;;;5032274;28;20262;-72
2022/08/17 14:06:47;;;;;;;;;;;28.00;61.10;;;;;;5032906;28;19914;-72
2022/08/17 14:09:14;;;;;;;;;;;28.10;59.90;;;;;;5031955;28;19920;-72
2022/08/17 14:11:40;;;;;;;;;;;28.10;60.10;;;;;;5032835;28;19944;-72
2022/08/17 14:14:06;;;;;;;;;;;28.10;61.10;;;;;;5031848;28;20343;-72
2022/08/17 14:16:32;;;;;;;;;;;28.40;59.90;;;;;;5032350;28;19917;-72
2022/08/17 14:18:58;;;;;;;;;;;28.00;59.70;;;;;;5032549;28;19925;-71
2022/08/17 14:21:24;;;;;;;;;;;27.60;60.60;;;;;;5031762;28;20459;-72
2022/08/17 14:23:50;;;;;;;;;;;27.70;62.00;;;;;;5032543;28;19913;-72
2022/08/17 14:26:16;;;;;;;;;;;28.10;59.40;;;;;;5031708;28;20286;-72
2022/08/17 14:28:42;;;;;;;;;;;28.40;58.00;;;;;;5032514;28;19913;-72
2022/08/17 14:31:09;;;;;;;;;;;28.40;57.20;;;;;;5031578;28;19920;-72
2022/08/17 14:33:35;;;;;;;;;;;28.70;57.10;;;;;;5032248;28;19917;-72
2022/08/17 14:36:02;;;;;;;;;;;28.60;55.50;;;;;;5032322;28;19935;-72
2022/08/17 14:38:28;;;;;;;;;;;28.40;54.40;;;;;;5031000;28;19913;-72
2022/08/17 14:40:54;;;;;;;;;;;28.10;56.00;;;;;;5032220;28;19909;-72
2022/08/17 14:43:20;;;;;;;;;;;28.30;55.80;;;;;;5031870;28;19917;-72
2022/08/17 14:45:46;;;;;;;;;;;28.50;57.20;;;;;;5032203;28;20358;-71
2022/08/17 14:48:12;;;;;;;;;;;28.40;55.70;;;;;;5031935;28;19916;-72
2022/08/17 14:50:39;;;;;;;;;;;28.60;56.10;;;;;;5032204;28;19920;-72
2022/08/17 14:53:06;;;;;;;;;;;28.70;54.90;;;;;;5031644;28;20388;-75
2022/08/17 14:55:33;;;;;;;;;;;28.70;54.40;;;;;;5032094;28;19924;-72
2022/08/17 14:57:59;;;;;;;;;;;28.60;54.90;;;;;;5031863;28;20275;-72